createdAt,value
2023-01-08T11:01:47.746Z,9.80
2023-01-08T11:04:55.013Z,9.20
2023-01-08T11:08:05.860Z,10.00
2023-01-08T11:11:13.469Z,10.30
2023-01-08T11:14:26.747Z,11.70
2023-01-08T11:17:34.099Z,62.00
2023-01-08T11:20:42.095Z,58.90
2023-01-08T11:23:49.340Z,22.40
2023-01-08T11:26:59.136Z,23.00
2023-01-08T11:30:08.583Z,14.80
2023-01-08T11:33:19.925Z,44.20
2023-01-08T11:36:31.669Z,13.90
2023-01-08T11:39:39.148Z,17.10
2023-01-08T11:42:57.598Z,13.70
2023-01-08T11:46:31.512Z,16.60
2023-01-08T11:50:00.006Z,20.70
2023-01-08T11:53:18.766Z,17.00
2023-01-08T11:56:41.125Z,31.10
2023-01-08T12:00:03.244Z,11.10
2023-01-08T12:03:27.430Z,13.50
2023-01-08T12:06:42.913Z,11.00
2023-01-08T12:09:54.470Z,12.00
2023-01-08T12:13:14.779Z,11.80
2023-01-08T12:16:39.135Z,14.20
2023-01-08T12:20:00.119Z,17.10
2023-01-08T12:23:21.077Z,25.10
2023-01-08T12:26:35.758Z,42.00
2023-01-08T12:30:09.543Z,18.20
2023-01-08T12:33:34.780Z,28.60
2023-01-08T12:36:45.530Z,31.80
2023-01-08T12:40:01.190Z,21.00
2023-01-08T12:43:14.446Z,24.70
2023-01-08T12:46:21.657Z,21.90
2023-01-08T12:49:35.901Z,38.30
2023-01-08T12:52:50.691Z,117.00
2023-01-08T12:56:06.279Z,39.60
2023-01-08T12:59:26.355Z,17.40
2023-01-08T13:02:40.676Z,13.90
2023-01-08T13:05:47.076Z,18.10
2023-01-08T13:08:55.067Z,24.00
2023-01-08T13:12:02.505Z,35.00
2023-01-08T13:15:20.732Z,15.10
2023-01-08T13:18:26.900Z,12.90
2023-01-08T13:21:39.077Z,11.50
2023-01-08T13:24:45.321Z,11.70
2023-01-08T13:27:51.741Z,12.20
2023-01-08T13:31:09.356Z,13.60
2023-01-08T13:34:36.900Z,14.00
2023-01-08T13:37:43.383Z,14.00
2023-01-08T13:40:57.782Z,13.90
2023-01-08T13:44:06.603Z,28.50
2023-01-08T13:47:23.597Z,12.00
2023-01-08T13:50:30.717Z,13.20
2023-01-08T13:53:38.015Z,13.20
2023-01-08T13:56:45.997Z,15.10
2023-01-08T13:59:57.371Z,17.30
2023-01-08T14:03:03.708Z,14.60
2023-01-08T14:06:16.339Z,14.30
2023-01-08T14:09:25.289Z,13.70
2023-01-08T14:12:31.692Z,13.10
2023-01-08T14:15:39.880Z,13.50
2023-01-08T14:18:47.462Z,14.40
2023-01-08T14:21:56.360Z,16.00
2023-01-08T14:25:07.778Z,11.90
2023-01-08T14:28:20.087Z,11.60
2023-01-08T14:31:28.149Z,11.80
2023-01-08T14:34:39.180Z,12.40
2023-01-08T14:37:45.411Z,12.10
2023-01-08T14:41:01.717Z,13.60
2023-01-08T14:44:14.044Z,11.60
2023-01-08T14:47:22.008Z,12.90
2023-01-08T14:50:30.264Z,13.00
2023-01-08T14:53:39.507Z,15.60
2023-01-08T14:56:48.822Z,13.70
2023-01-08T14:59:58.117Z,12.40
2023-01-08T15:03:04.364Z,14.40
2023-01-08T15:06:12.048Z,15.20
2023-01-08T15:09:35.954Z,14.70
2023-01-08T15:12:42.119Z,14.30
2023-01-08T15:15:57.191Z,21.20
2023-01-08T15:19:08.762Z,19.50
2023-01-08T15:22:20.522Z,15.40
2023-01-08T15:25:29.445Z,32.70
2023-01-08T15:28:35.746Z,29.20
2023-01-08T15:31:50.474Z,19.30
2023-01-08T15:34:56.599Z,18.00
2023-01-08T15:38:02.818Z,14.50
2023-01-08T15:41:10.764Z,16.50
2023-01-08T15:44:16.972Z,22.60
2023-01-08T15:47:23.152Z,26.90
2023-01-08T15:50:32.425Z,33.50
2023-01-08T15:53:38.481Z,25.80
2023-01-08T15:56:44.889Z,25.40
2023-01-08T16:02:56.451Z,17.80
2023-01-08T16:06:06.601Z,11.60
2023-01-08T16:09:12.830Z,12.20
2023-01-08T16:12:18.994Z,14.90
2023-01-08T16:15:25.169Z,14.70
2023-01-08T16:18:31.439Z,18.80
2023-01-08T16:24:42.232Z,37.70
2023-01-08T16:27:48.443Z,36.70
2023-01-08T16:30:54.904Z,35.00
2023-01-08T16:34:05.372Z,31.50
2023-01-08T16:37:11.619Z,27.90
2023-01-08T16:40:19.294Z,21.40
2023-01-08T16:43:25.920Z,21.50
2023-01-08T16:46:32.134Z,26.20
2023-01-08T16:49:39.800Z,30.80
2023-01-08T16:52:47.743Z,39.80
2023-01-08T16:55:53.966Z,38.40
2023-01-08T16:59:00.119Z,26.50
2023-01-08T17:02:06.727Z,53.90
2023-01-08T17:05:13.125Z,50.40
2023-01-08T17:11:26.322Z,86.00
2023-01-08T17:17:37.809Z,50.80
2023-01-08T17:20:43.977Z,49.30
2023-01-08T17:23:50.207Z,57.90
2023-01-08T17:26:58.281Z,48.00
2023-01-08T17:30:04.755Z,46.90
2023-01-08T17:33:13.976Z,45.50
2023-01-08T17:36:22.873Z,47.30
2023-01-08T17:39:29.307Z,47.00
2023-01-08T17:45:42.110Z,37.80
2023-01-08T17:48:49.076Z,26.80
2023-01-08T17:51:57.103Z,24.90
2023-01-08T17:55:03.294Z,27.40
2023-01-08T17:58:09.813Z,21.90
2023-01-08T18:01:16.083Z,26.60
2023-01-08T18:07:26.886Z,28.10
2023-01-08T18:10:33.236Z,27.00
2023-01-08T18:13:39.690Z,25.40
2023-01-08T18:16:49.759Z,49.70
2023-01-08T18:19:56.011Z,28.20
2023-01-08T18:23:02.112Z,31.30
2023-01-08T18:26:12.223Z,30.40
2023-01-08T18:29:18.722Z,30.70
2023-01-08T18:32:26.206Z,31.10
2023-01-08T18:35:33.524Z,30.70
2023-01-08T18:38:44.183Z,38.40
2023-01-08T18:42:07.850Z,37.00
2023-01-08T18:45:15.179Z,52.00
2023-01-08T18:48:21.219Z,48.00
2023-01-08T18:51:28.686Z,35.20
2023-01-08T18:54:35.549Z,39.10
2023-01-08T18:57:41.866Z,32.80
2023-01-08T19:00:48.446Z,40.30
2023-01-08T19:03:55.744Z,50.10
2023-01-08T19:07:04.595Z,36.90
2023-01-08T19:10:16.010Z,37.60
2023-01-08T19:13:22.735Z,29.60
2023-01-08T19:16:30.149Z,30.10
2023-01-08T19:19:38.995Z,33.40
2023-01-08T19:22:45.708Z,34.80
2023-01-08T19:25:52.979Z,38.30
2023-01-08T19:28:59.549Z,38.30
2023-01-08T19:32:07.876Z,55.70
2023-01-08T19:35:22.341Z,104.80
2023-01-08T19:38:29.687Z,70.20
2023-01-08T19:41:56.864Z,43.70
2023-01-08T19:45:03.441Z,44.50
2023-01-08T19:48:10.427Z,48.00
2023-01-08T19:51:18.236Z,43.40
2023-01-08T19:54:25.993Z,54.10
2023-01-08T19:57:32.207Z,42.30
2023-01-08T20:00:39.673Z,46.50
2023-01-08T20:03:46.591Z,45.50
2023-01-08T20:06:53.583Z,53.40
2023-01-08T20:10:04.080Z,43.00
2023-01-08T20:13:10.496Z,47.60
2023-01-08T20:16:18.887Z,43.30
2023-01-08T20:19:28.940Z,37.80
2023-01-08T20:22:35.198Z,75.40
2023-01-08T20:25:42.077Z,47.60
2023-01-08T20:28:52.001Z,49.60
2023-01-08T20:31:59.499Z,59.00
2023-01-08T20:35:06.603Z,56.30
2023-01-08T20:38:12.797Z,47.30
2023-01-08T20:41:19.273Z,42.10
2023-01-08T20:44:26.040Z,48.40
2023-01-08T20:47:35.011Z,61.90
2023-01-08T20:50:44.947Z,66.90
2023-01-08T20:53:51.465Z,61.30
2023-01-08T20:56:59.529Z,62.10
2023-01-08T21:00:06.861Z,66.20
2023-01-08T21:03:13.553Z,86.90
2023-01-08T21:06:21.220Z,71.20
2023-01-08T21:09:28.480Z,75.30
2023-01-08T21:12:35.763Z,77.80
2023-01-08T21:15:41.984Z,71.20
2023-01-08T21:18:48.643Z,70.90
2023-01-08T21:21:54.873Z,81.30
2023-01-08T21:25:01.165Z,77.50
2023-01-08T21:28:08.646Z,80.00
2023-01-08T21:31:16.803Z,84.90
2023-01-08T21:34:23.036Z,115.80
2023-01-08T21:37:30.338Z,95.30
2023-01-08T21:40:36.568Z,70.70
2023-01-08T21:43:59.936Z,68.50
2023-01-08T21:47:08.440Z,75.00
2023-01-08T21:50:15.268Z,73.60
2023-01-08T21:53:36.159Z,72.30
2023-01-08T21:56:42.724Z,67.10
2023-01-08T21:59:51.831Z,72.40
2023-01-08T22:02:58.139Z,68.20
2023-01-08T22:09:09.758Z,57.50
2023-01-08T22:15:21.642Z,75.70
2023-01-08T22:18:27.923Z,80.10
2023-01-08T22:21:34.153Z,73.40
2023-01-08T22:24:41.054Z,73.70
2023-01-08T22:27:51.239Z,73.40
2023-01-08T22:30:57.863Z,72.50
2023-01-08T22:34:04.138Z,75.40
2023-01-08T22:37:10.410Z,71.80
2023-01-08T22:40:17.397Z,73.60
2023-01-08T22:43:23.657Z,73.60
2023-01-08T22:46:29.942Z,73.50
2023-01-08T22:52:41.034Z,65.60
2023-01-08T23:01:58.048Z,67.10
2023-01-08T23:05:05.019Z,71.30
2023-01-08T23:08:11.960Z,71.20
2023-01-08T23:11:20.373Z,73.70
2023-01-08T23:14:26.633Z,73.20
2023-01-08T23:17:38.906Z,65.60
2023-01-08T23:20:50.819Z,65.60
2023-01-08T23:27:01.599Z,61.70
2023-01-08T23:30:09.565Z,64.60
2023-01-08T23:33:15.803Z,60.10
2023-01-08T23:36:22.955Z,63.30
2023-01-08T23:39:29.235Z,73.50
2023-01-08T23:42:35.710Z,67.30
2023-01-08T23:45:42.178Z,67.50
2023-01-08T23:48:51.062Z,65.10
2023-01-08T23:51:57.811Z,66.30
2023-01-08T23:55:04.102Z,66.90
